createdAt,value
2022-08-05T00:00:16.538Z,91624.78
2022-08-05T00:02:51.302Z,91617.94
2022-08-05T00:06:02.089Z,91623.63
2022-08-05T00:08:06.821Z,91618.75
2022-08-05T00:10:53.130Z,91620.28
2022-08-05T00:13:19.953Z,91612.69
2022-08-05T00:15:55.669Z,91611.19
2022-08-05T00:18:23.774Z,91605.22
2022-08-05T00:20:51.570Z,91619.59
2022-08-05T00:23:31.054Z,91613.53
2022-08-05T00:26:06.503Z,91614.69
2022-08-05T00:28:39.731Z,91622.63
2022-08-05T00:31:07.495Z,91620.34
2022-08-05T00:34:53.478Z,91615.47
2022-08-05T00:37:12.295Z,91615.81
2022-08-05T00:39:13.819Z,91607.06
2022-08-05T00:41:52.043Z,91611.91
2022-08-05T00:44:30.841Z,91611.22
2022-08-05T00:47:03.707Z,91609.41
2022-08-05T00:49:44.370Z,91596.97
2022-08-05T00:52:28.761Z,91603.78
2022-08-05T00:54:56.020Z,91605.34
2022-08-05T00:57:25.201Z,91605.38
2022-08-05T00:59:58.332Z,91593.34
2022-08-05T01:02:27.736Z,91596.34
2022-08-05T01:04:54.433Z,91595.50
2022-08-05T01:07:21.268Z,91596.97
2022-08-05T01:09:55.487Z,91596.22
2022-08-05T01:12:25.132Z,91596.22
2022-08-05T01:15:35.164Z,91592.09
2022-08-05T01:18:04.719Z,91598.22
2022-08-05T01:21:22.835Z,91595.63
2022-08-05T01:23:58.807Z,91593.81
2022-08-05T01:26:33.636Z,91592.31
2022-08-05T01:29:05.580Z,91582.22
2022-08-05T01:31:53.271Z,91588.97
2022-08-05T01:34:28.064Z,91598.78
2022-08-05T01:37:24.426Z,91592.78
2022-08-05T01:39:58.941Z,91590.88
2022-08-05T01:42:28.038Z,91588.66
2022-08-05T01:44:59.194Z,91595.81
2022-08-05T01:47:39.360Z,91590.91
2022-08-05T01:50:15.166Z,91587.50
2022-08-05T01:52:50.064Z,91595.88
2022-08-05T01:55:20.906Z,91592.84
2022-08-05T01:58:12.357Z,91592.06
2022-08-05T02:00:44.580Z,91584.94
2022-08-05T02:03:24.509Z,91583.81
2022-08-05T02:06:37.738Z,91589.13
2022-08-05T02:08:59.491Z,91586.13
2022-08-05T02:11:48.166Z,91587.22
2022-08-05T02:14:25.468Z,91581.56
2022-08-05T02:17:03.866Z,91583.84
2022-08-05T02:19:35.966Z,91585.38
2022-08-05T02:22:26.495Z,91589.88
2022-08-05T02:25:02.580Z,91587.63
2022-08-05T02:27:59.017Z,91577.06
2022-08-05T02:30:24.301Z,91577.06
2022-08-05T02:32:57.646Z,91582.72
2022-08-05T02:35:33.387Z,91584.59
2022-08-05T02:38:06.096Z,91586.84
2022-08-05T02:40:41.201Z,91574.81
2022-08-05T02:43:09.398Z,91574.84
2022-08-05T02:45:51.866Z,91580.09
2022-08-05T02:48:29.410Z,91578.59
2022-08-05T02:51:00.131Z,91572.59
2022-08-05T02:53:39.343Z,91574.84
2022-08-05T02:56:15.752Z,91571.16
2022-08-05T02:58:51.623Z,91581.69
2022-08-05T03:01:25.289Z,91584.66
2022-08-05T03:04:02.553Z,91576.72
2022-08-05T03:06:54.658Z,91586.19
2022-08-05T03:09:27.109Z,91581.97
2022-08-05T03:12:04.977Z,91580.50
2022-08-05T03:14:32.219Z,91579.38
2022-08-05T03:16:59.155Z,91580.94
2022-08-05T03:19:33.793Z,91582.88
2022-08-05T03:22:01.500Z,91575.34
2022-08-05T03:24:30.817Z,91583.22
2022-08-05T03:27:01.087Z,91577.19
2022-08-05T03:29:45.392Z,91570.41
2022-08-05T03:32:16.459Z,91584.72
2022-08-05T03:34:50.374Z,91579.44
2022-08-05T03:37:19.614Z,91582.03
2022-08-05T03:39:58.966Z,91580.88
2022-08-05T03:42:29.121Z,91579.31
2022-08-05T03:44:58.769Z,91586.84
2022-08-05T03:47:25.645Z,91584.97
2022-08-05T03:49:57.554Z,91583.09
2022-08-05T03:52:38.454Z,91580.09
2022-08-05T03:56:05.358Z,91579.03
2022-08-05T03:58:18.091Z,91588.44
2022-08-05T04:00:51.321Z,91581.94
2022-08-05T04:03:28.535Z,91581.97
2022-08-05T04:05:59.277Z,91586.84
2022-08-05T04:08:34.953Z,91578.56
2022-08-05T04:11:04.815Z,91577.34
2022-08-05T04:13:50.938Z,91573.56
2022-08-05T04:16:24.903Z,91571.66
2022-08-05T04:18:53.886Z,91571.63
2022-08-05T04:22:09.391Z,91568.59
2022-08-05T04:24:08.900Z,91575.34
2022-08-05T04:26:35.999Z,91560.59
2022-08-05T04:29:07.162Z,91557.13
2022-08-05T04:31:38.821Z,91539.84
2022-08-05T04:34:24.495Z,91531.97
2022-08-05T04:36:53.061Z,91558.16
2022-08-05T04:39:20.622Z,91554.72
2022-08-05T04:41:51.160Z,91557.78
2022-08-05T04:44:21.457Z,91553.97
2022-08-05T04:46:56.897Z,91549.31
2022-08-05T04:49:39.042Z,91549.25
2022-08-05T04:52:12.339Z,91547.28
2022-08-05T04:54:39.257Z,91546.59
2022-08-05T04:57:05.957Z,91543.31
2022-08-05T04:59:38.896Z,91538.75
2022-08-05T05:02:36.379Z,91542.50
2022-08-05T05:05:02.257Z,91539.34
2022-08-05T05:07:32.702Z,91541.66
2022-08-05T05:10:06.354Z,91529.41
2022-08-05T05:12:33.410Z,91540.41
2022-08-05T05:15:03.653Z,91541.06
2022-08-05T05:17:57.067Z,91542.16
2022-08-05T05:20:28.272Z,91535.53
2022-08-05T05:22:56.089Z,91527.69
2022-08-05T05:25:40.246Z,91531.19
2022-08-05T05:28:09.746Z,91526.63
2022-08-05T05:30:37.306Z,91530.69
2022-08-05T05:33:16.602Z,91532.56
2022-08-05T05:35:45.850Z,91526.22
2022-08-05T05:38:14.156Z,91527.22
2022-08-05T05:40:49.645Z,91519.81
2022-08-05T05:43:21.892Z,91513.00
2022-08-05T05:46:13.774Z,91511.44
2022-08-05T05:48:44.255Z,91511.38
2022-08-05T05:51:15.865Z,91505.44
2022-08-05T05:53:54.310Z,91503.38
2022-08-05T05:56:32.825Z,91501.41
2022-08-05T05:59:06.394Z,91494.03
2022-08-05T06:01:39.836Z,91496.00
2022-08-05T06:04:14.724Z,91500.25
2022-08-05T06:06:47.431Z,91497.25
2022-08-05T06:09:16.974Z,91489.41
2022-08-05T06:12:01.097Z,91499.16
2022-08-05T06:14:34.839Z,91489.91
2022-08-05T06:17:22.158Z,91493.91
2022-08-05T06:19:56.908Z,91481.28
2022-08-05T06:22:33.512Z,91458.19
2022-08-05T06:25:01.207Z,91479.28
2022-08-05T06:28:09.409Z,91482.72
2022-08-05T06:30:34.571Z,91486.31
2022-08-05T06:33:01.587Z,91482.84
2022-08-05T06:36:07.913Z,91487.25
2022-08-05T06:38:15.065Z,91488.03
2022-08-05T06:40:44.636Z,91484.81
2022-08-05T06:43:57.903Z,91487.75
2022-08-05T06:46:03.750Z,91489.06
2022-08-05T06:48:50.297Z,91486.22
2022-08-05T06:51:29.399Z,91493.53
2022-08-05T06:54:02.486Z,91487.81
2022-08-05T06:56:34.972Z,91486.44
2022-08-05T06:59:03.329Z,91486.91
2022-08-05T07:01:32.752Z,91489.31
2022-08-05T07:04:02.475Z,91480.09
2022-08-05T07:06:31.925Z,91491.56
2022-08-05T07:08:59.622Z,91491.16
2022-08-05T07:11:31.430Z,91494.78
2022-08-05T07:14:29.694Z,91490.84
2022-08-05T07:17:58.405Z,91494.78
2022-08-05T07:20:31.698Z,91491.44
2022-08-05T07:22:37.353Z,91482.56
2022-08-05T07:25:22.995Z,91491.38
2022-08-05T07:28:05.778Z,91495.72
2022-08-05T07:30:38.543Z,91496.16
2022-08-05T07:33:17.081Z,91497.91
2022-08-05T07:36:01.937Z,91493.94
2022-08-05T07:38:42.823Z,91489.22
2022-08-05T07:42:06.943Z,91496.13
2022-08-05T07:44:03.311Z,91490.28
2022-08-05T07:46:31.838Z,91495.59
2022-08-05T07:49:05.845Z,91487.22
2022-08-05T07:51:40.874Z,91492.19
2022-08-05T07:54:15.642Z,91486.97
2022-08-05T07:57:02.320Z,91482.34
2022-08-05T07:59:40.024Z,91483.09
2022-08-05T08:02:17.024Z,91497.53
2022-08-05T08:04:49.414Z,91487.53
2022-08-05T08:07:18.395Z,91487.06
2022-08-05T08:09:52.299Z,91494.75
2022-08-05T08:12:35.521Z,91488.22
2022-08-05T08:15:13.898Z,91483.94
2022-08-05T08:17:50.651Z,91475.00
2022-08-05T08:20:44.014Z,91476.56
2022-08-05T08:23:59.994Z,91479.13
2022-08-05T08:25:59.431Z,91494.16
2022-08-05T08:28:35.803Z,91494.38
2022-08-05T08:31:04.511Z,91480.94
2022-08-05T08:33:35.922Z,91486.84
2022-08-05T08:36:38.670Z,91485.38
2022-08-05T08:38:55.685Z,91482.41
2022-08-05T08:41:50.741Z,91480.91
2022-08-05T08:45:24.898Z,91481.94
2022-08-05T08:47:47.086Z,91492.41
2022-08-05T08:50:14.609Z,91491.50
2022-08-05T08:52:51.769Z,91488.19
2022-08-05T08:56:02.848Z,91486.25
2022-08-05T08:58:15.676Z,91479.28
2022-08-05T09:00:42.998Z,91488.31
2022-08-05T09:03:16.305Z,91488.59
2022-08-05T09:06:09.180Z,91480.13
2022-08-05T09:08:34.900Z,91473.94
2022-08-05T09:11:05.255Z,91477.47
2022-08-05T09:14:09.535Z,91478.19
2022-08-05T09:16:22.660Z,91472.78
2022-08-05T09:18:53.664Z,91487.78
2022-08-05T09:22:22.474Z,91471.81
2022-08-05T09:24:13.256Z,91468.59
2022-08-05T09:26:46.438Z,91451.56
2022-08-05T09:29:18.883Z,91463.88
2022-08-05T09:32:51.104Z,91471.78
2022-08-05T09:34:56.373Z,91455.13
2022-08-05T09:38:13.054Z,91464.66
2022-08-05T09:40:41.143Z,91459.00
2022-08-05T09:43:26.654Z,91454.28
2022-08-05T09:46:06.618Z,91464.03
2022-08-05T09:48:37.435Z,91452.59
2022-08-05T09:51:07.601Z,91436.44
2022-08-05T09:53:59.383Z,91454.38
2022-08-05T09:56:35.461Z,91445.72
2022-08-05T09:59:17.170Z,91443.22
2022-08-05T10:01:46.639Z,91445.00
2022-08-05T10:04:16.212Z,91435.81
2022-08-05T10:06:58.974Z,91449.09
2022-08-05T10:09:28.193Z,91438.78
2022-08-05T10:12:18.959Z,91436.19
2022-08-05T10:15:20.412Z,91423.34
2022-08-05T10:18:24.188Z,91430.75
2022-08-05T10:20:53.507Z,91431.03
2022-08-05T10:23:56.155Z,91427.59
2022-08-05T10:26:13.800Z,91422.47
2022-08-05T10:28:43.076Z,91422.09
2022-08-05T10:32:50.751Z,91413.47
2022-08-05T10:34:02.496Z,91416.56
2022-08-05T10:36:30.836Z,91414.16
2022-08-05T10:39:10.493Z,91409.38
2022-08-05T10:42:01.146Z,91432.94
2022-08-05T10:44:32.581Z,91425.25
2022-08-05T10:46:59.419Z,91416.19
2022-08-05T10:49:33.069Z,91404.53
2022-08-05T10:52:05.074Z,91419.75
2022-08-05T10:55:05.389Z,91406.09
2022-08-05T10:57:35.106Z,91406.81
2022-08-05T11:00:23.051Z,91404.63
2022-08-05T11:03:24.216Z,91406.31
2022-08-05T11:06:03.811Z,91402.63
2022-08-05T11:08:37.019Z,91391.47
2022-08-05T11:11:52.382Z,91390.19
2022-08-05T11:14:49.409Z,91403.53
2022-08-05T11:17:59.038Z,91398.56
2022-08-05T11:20:46.544Z,91398.06
2022-08-05T11:24:05.160Z,91398.66
2022-08-05T11:26:28.836Z,91391.31
2022-08-05T11:29:11.741Z,91384.38
2022-08-05T11:31:57.453Z,91396.25
2022-08-05T11:34:50.985Z,91391.69
2022-08-05T11:38:28.838Z,91395.09
2022-08-05T11:41:14.119Z,91387.88
2022-08-05T11:44:05.628Z,91395.47
2022-08-05T11:46:34.337Z,91391.31
2022-08-05T11:49:03.350Z,91376.25
2022-08-05T11:51:44.256Z,91378.97
2022-08-05T11:54:33.831Z,91379.63
2022-08-05T11:57:08.143Z,91380.22
2022-08-05T11:59:50.658Z,91374.84
2022-08-05T12:02:23.889Z,91371.41
2022-08-05T12:05:00.003Z,91374.84
2022-08-05T12:08:09.100Z,91371.13
2022-08-05T12:10:23.022Z,91371.66
2022-08-05T12:12:59.969Z,91357.38
2022-08-05T12:15:38.061Z,91376.56
2022-08-05T12:18:10.776Z,91359.34
2022-08-05T12:20:43.817Z,91374.09
2022-08-05T12:23:12.794Z,91374.63
2022-08-05T12:25:56.791Z,91356.66
2022-08-05T12:28:37.835Z,91366.97
2022-08-05T12:31:07.963Z,91373.88
2022-08-05T12:33:39.244Z,91362.50
2022-08-05T12:36:10.455Z,91363.66
2022-08-05T12:38:39.987Z,91366.94
2022-08-05T12:41:14.016Z,91370.91
2022-08-05T12:43:58.846Z,91366.72
2022-08-05T12:46:33.815Z,91362.28
2022-08-05T12:49:25.656Z,91362.44
2022-08-05T12:52:26.995Z,91354.56
2022-08-05T12:54:59.366Z,91357.81
2022-08-05T12:58:38.734Z,91358.19
2022-08-05T13:02:02.929Z,91352.44
2022-08-05T13:03:14.705Z,91352.94
2022-08-05T13:05:41.698Z,91354.84
2022-08-05T13:08:09.518Z,91359.53
2022-08-05T13:10:50.297Z,91348.63
2022-08-05T13:14:06.134Z,91355.56
2022-08-05T13:16:13.094Z,91345.06
2022-08-05T13:18:58.442Z,91337.94
2022-08-05T13:21:38.053Z,91353.22
2022-08-05T13:24:27.680Z,91348.28
2022-08-05T13:27:03.985Z,91347.31
2022-08-05T13:29:37.274Z,91336.72
2022-08-05T13:32:08.271Z,91336.22
2022-08-05T13:34:37.914Z,91322.22
2022-08-05T13:37:07.608Z,91330.81
2022-08-05T13:40:14.996Z,91329.28
2022-08-05T13:42:23.469Z,91325.09
2022-08-05T13:44:57.851Z,91337.09
2022-08-05T13:47:35.135Z,91332.16
2022-08-05T13:50:06.350Z,91318.50
2022-08-05T13:52:35.870Z,91321.44
2022-08-05T13:55:07.891Z,91320.50
2022-08-05T13:57:51.441Z,91323.38
2022-08-05T14:00:27.106Z,91317.94
2022-08-05T14:02:58.091Z,91326.34
2022-08-05T14:06:04.602Z,91329.59
2022-08-05T14:08:20.833Z,91326.16
2022-08-05T14:11:03.099Z,91330.28
2022-08-05T14:13:41.359Z,91331.75
2022-08-05T14:16:11.567Z,91326.22
2022-08-05T14:18:39.758Z,91321.06
2022-08-05T14:22:07.729Z,91321.03
2022-08-05T14:23:54.354Z,91331.63
2022-08-05T14:26:38.675Z,91319.19
2022-08-05T14:29:16.063Z,91329.00
2022-08-05T14:32:03.227Z,91316.00
2022-08-05T14:34:34.966Z,91331.97
2022-08-05T14:37:04.893Z,91324.59
2022-08-05T14:39:49.726Z,91321.13
2022-08-05T14:42:21.372Z,91314.75
2022-08-05T14:44:56.572Z,91322.38
2022-08-05T14:48:02.993Z,91319.44
2022-08-05T14:50:17.559Z,91318.47
2022-08-05T14:52:53.571Z,91317.31
2022-08-05T14:55:25.312Z,91316.66
2022-08-05T14:57:56.003Z,91312.66
2022-08-05T15:00:28.197Z,91310.16
2022-08-05T15:02:56.626Z,91312.81
2022-08-05T15:05:29.995Z,91315.59
2022-08-05T15:08:17.834Z,91308.13
2022-08-05T15:11:00.704Z,91313.38
2022-08-05T15:13:28.667Z,91311.44
2022-08-05T15:16:15.991Z,91311.66
2022-08-05T15:18:43.723Z,91303.47
2022-08-05T15:21:14.040Z,91310.50
2022-08-05T15:23:41.502Z,91312.50
2022-08-05T15:26:08.287Z,91299.13
2022-08-05T15:28:35.793Z,91293.00
2022-08-05T15:31:10.258Z,91302.88
2022-08-05T15:34:04.376Z,91303.34
2022-08-05T15:36:24.665Z,91302.47
2022-08-05T15:41:00.357Z,91291.69
2022-08-05T15:41:58.484Z,91302.53
2022-08-05T15:44:27.741Z,91293.25
2022-08-05T15:46:56.026Z,91293.88
2022-08-05T15:49:53.411Z,91283.47
2022-08-05T15:52:16.668Z,91293.53
2022-08-05T15:54:55.782Z,91299.06
2022-08-05T15:57:23.935Z,91297.97
2022-08-05T15:59:56.727Z,91296.31
2022-08-05T16:02:28.502Z,91288.53
2022-08-05T16:04:56.000Z,91297.00
2022-08-05T16:07:23.051Z,91290.38
2022-08-05T16:09:50.249Z,91293.72
2022-08-05T16:12:19.803Z,91296.88
2022-08-05T16:14:47.974Z,91288.97
2022-08-05T16:17:14.714Z,91303.22
2022-08-05T16:20:04.467Z,91301.44
2022-08-05T16:22:33.878Z,91297.00
2022-08-05T16:25:07.951Z,91299.50
2022-08-05T16:27:46.992Z,91297.53
2022-08-05T16:30:26.145Z,91299.22
2022-08-05T16:32:55.422Z,91295.31
2022-08-05T16:35:28.055Z,91295.97
2022-08-05T16:38:15.276Z,91289.09
2022-08-05T16:40:51.711Z,91301.84
2022-08-05T16:43:23.850Z,91307.75
2022-08-05T16:46:04.414Z,91308.72
2022-08-05T16:48:39.290Z,91300.34
2022-08-05T16:51:09.298Z,91316.59
2022-08-05T16:54:03.458Z,91311.78
2022-08-05T16:56:26.143Z,91319.38
2022-08-05T16:58:55.330Z,91323.66
2022-08-05T17:01:22.180Z,91315.31
2022-08-05T17:03:51.991Z,91318.09
2022-08-05T17:06:19.395Z,91317.06
2022-08-05T17:08:53.132Z,91321.53
2022-08-05T17:11:25.150Z,91318.00
2022-08-05T17:14:00.647Z,91320.97
2022-08-05T17:16:36.593Z,91316.22
2022-08-05T17:19:09.634Z,91315.03
2022-08-05T17:21:39.796Z,91322.22
2022-08-05T17:24:30.180Z,91322.22
2022-08-05T17:26:56.797Z,91321.94
2022-08-05T17:29:33.302Z,91324.47
2022-08-05T17:32:16.768Z,91328.44
2022-08-05T17:34:47.509Z,91325.28
2022-08-05T17:37:40.617Z,91329.19
2022-08-05T17:40:10.159Z,91333.56
2022-08-05T17:42:42.894Z,91338.72
2022-08-05T17:45:22.615Z,91335.50
2022-08-05T17:47:59.175Z,91334.06
2022-08-05T17:50:30.386Z,91338.25
2022-08-05T17:53:08.694Z,91343.38
2022-08-05T17:55:38.469Z,91345.94
2022-08-05T17:58:14.651Z,91344.28
2022-08-05T18:00:47.884Z,91353.13
2022-08-05T18:06:12.369Z,91354.28
2022-08-05T18:08:45.835Z,91353.38
2022-08-05T18:11:24.183Z,91359.63
2022-08-05T18:14:03.285Z,91362.22
2022-08-05T18:16:31.209Z,91364.56
2022-08-05T18:18:58.050Z,91371.56
2022-08-05T18:21:26.380Z,91368.44
2022-08-05T18:23:55.001Z,91374.06
2022-08-05T18:26:29.085Z,91369.00
2022-08-05T18:28:58.331Z,91377.13
2022-08-05T18:31:25.081Z,91374.03
2022-08-05T18:33:52.428Z,91373.09
2022-08-05T18:36:27.909Z,91378.34
2022-08-05T18:38:55.482Z,91381.72
2022-08-05T18:41:53.397Z,91383.59
2022-08-05T18:44:09.089Z,91389.31
2022-08-05T18:46:36.271Z,91390.69
2022-08-05T18:49:21.734Z,91383.34
2022-08-05T18:52:08.652Z,91394.75
2022-08-05T18:54:35.980Z,91392.75
2022-08-05T18:57:09.650Z,91389.53
2022-08-05T19:00:03.275Z,91390.53
2022-08-05T19:02:30.189Z,91392.69
2022-08-05T19:05:02.948Z,91398.50
2022-08-05T19:07:52.301Z,91390.66
2022-08-05T19:10:28.221Z,91394.41
2022-08-05T19:12:58.051Z,91390.56
2022-08-05T19:15:59.407Z,91391.97
2022-08-05T19:18:22.018Z,91392.75
2022-08-05T19:20:52.433Z,91388.38
2022-08-05T19:24:04.119Z,91397.94
2022-08-05T19:26:09.171Z,91393.72
2022-08-05T19:28:43.672Z,91389.97
2022-08-05T19:31:13.292Z,91386.81
2022-08-05T19:33:48.219Z,91389.03
2022-08-05T19:36:23.603Z,91384.47
2022-08-05T19:38:50.282Z,91387.75
2022-08-05T19:41:21.857Z,91389.03
2022-08-05T19:44:12.774Z,91396.91
2022-08-05T19:46:41.138Z,91388.91
2022-08-05T19:49:16.485Z,91394.78
2022-08-05T19:52:09.220Z,91393.38
2022-08-05T19:54:34.314Z,91392.22
2022-08-05T19:57:06.619Z,91397.34
2022-08-05T19:59:55.577Z,91392.50
2022-08-05T20:02:27.932Z,91393.47
2022-08-05T20:04:58.739Z,91386.28
2022-08-05T20:07:47.277Z,91390.16
2022-08-05T20:10:16.488Z,91392.25
2022-08-05T20:12:47.994Z,91391.91
2022-08-05T20:15:48.406Z,91391.72
2022-08-05T20:18:10.354Z,91387.22
2022-08-05T20:20:57.056Z,91396.94
2022-08-05T20:23:39.324Z,91402.28
2022-08-05T20:26:15.421Z,91395.44
2022-08-05T20:28:48.729Z,91391.81
2022-08-05T20:31:21.583Z,91398.63
2022-08-05T20:33:50.249Z,91395.50
2022-08-05T20:36:18.258Z,91396.66
2022-08-05T20:38:53.780Z,91403.66
2022-08-05T20:41:27.083Z,91396.22
2022-08-05T20:44:18.846Z,91401.63
2022-08-05T20:46:55.470Z,91414.50
2022-08-05T20:49:24.361Z,91407.03
2022-08-05T20:51:54.033Z,91406.25
2022-08-05T20:54:21.305Z,91385.50
2022-08-05T20:56:48.970Z,91400.25
2022-08-05T20:59:26.295Z,91395.63
2022-08-05T21:02:03.903Z,91396.28
2022-08-05T21:04:33.846Z,91400.09
2022-08-05T21:07:03.259Z,91401.09
2022-08-05T21:09:29.909Z,91396.63
2022-08-05T21:12:10.729Z,91408.50
2022-08-05T21:14:38.795Z,91391.66
2022-08-05T21:17:06.062Z,91408.50
2022-08-05T21:19:46.611Z,91397.13
2022-08-05T21:22:18.666Z,91399.47
2022-08-05T21:24:52.001Z,91412.44
2022-08-05T21:27:25.338Z,91401.78
2022-08-05T21:29:57.087Z,91396.91
2022-08-05T21:32:28.554Z,91397.72
2022-08-05T21:35:16.708Z,91391.41
2022-08-05T21:37:47.124Z,91394.75
2022-08-05T21:40:20.668Z,91396.13
2022-08-05T21:42:52.017Z,91396.13
2022-08-05T21:45:25.043Z,91396.13
2022-08-05T21:48:06.589Z,91389.59
2022-08-05T21:50:34.898Z,91397.88
2022-08-05T21:53:17.456Z,91394.13
2022-08-05T21:56:06.334Z,91392.31
2022-08-05T21:58:32.163Z,91392.81
2022-08-05T22:00:59.981Z,91379.28
2022-08-05T22:03:48.652Z,91378.34
2022-08-05T22:06:15.938Z,91384.47
2022-08-05T22:08:51.778Z,91380.19
2022-08-05T22:11:19.921Z,91387.13
2022-08-05T22:14:18.209Z,91385.84
2022-08-05T22:16:51.111Z,91387.50
2022-08-05T22:20:02.225Z,91386.44
2022-08-05T22:22:07.324Z,91384.47
2022-08-05T22:24:55.766Z,91380.22
2022-08-05T22:28:09.869Z,91383.56
2022-08-05T22:30:44.302Z,91381.19
2022-08-05T22:33:55.568Z,91384.25
2022-08-05T22:36:15.518Z,91372.72
2022-08-05T22:38:48.082Z,91377.69
2022-08-05T22:41:16.609Z,91375.25
2022-08-05T22:44:03.439Z,91382.47
2022-08-05T22:46:30.112Z,91371.19
2022-08-05T22:48:56.780Z,91365.97
2022-08-05T22:52:04.701Z,91368.28
2022-08-05T22:54:10.413Z,91369.91
2022-08-05T22:56:40.040Z,91368.41
2022-08-05T22:59:43.582Z,91363.91
2022-08-05T23:02:06.038Z,91362.09
2022-08-05T23:04:35.068Z,91363.31
2022-08-05T23:07:05.746Z,91356.91
2022-08-05T23:09:57.933Z,91363.19
2022-08-05T23:12:23.813Z,91360.53
2022-08-05T23:14:51.573Z,91362.44
2022-08-05T23:17:34.555Z,91363.31
2022-08-05T23:20:10.457Z,91360.88
2022-08-05T23:22:47.305Z,91358.69
2022-08-05T23:25:17.637Z,91356.84
2022-08-05T23:28:01.568Z,91356.97
2022-08-05T23:30:28.978Z,91354.06
2022-08-05T23:32:55.855Z,91274.81
2022-08-05T23:35:25.117Z,91352.69
2022-08-05T23:38:00.881Z,91349.28
2022-08-05T23:40:27.680Z,91350.59
2022-08-05T23:42:54.469Z,91351.38
2022-08-05T23:45:21.258Z,91355.81
2022-08-05T23:47:52.066Z,91350.59
2022-08-05T23:50:20.714Z,91335.59
2022-08-05T23:52:50.135Z,91349.81
2022-08-05T23:55:19.273Z,91351.34
2022-08-05T23:57:49.009Z,91350.63
